< < Back
Terminal Aerodrome Forecast


Current Version              Previous Versions:   1  2  3  4  5  6  7  8  9  

Terminal Aerodrome Forecast

073
FTUS42 KFFC 110521
TAFFTY
TAF
KFTY 110521Z 1106/1206 30004KT P6SM BKN060
     FM110900 28003KT P6SM SCT070
     FM111500 VRB03KT P6SM SCT050
     FM120000 VRB03KT P6SM BKN100
     FM120400 05003KT P6SM BKN040=

Latest METAR

794
SAUS70 KWBC 112100 RRE
MTRFTY
METAR KFTY 112053Z VRB03KT 10SM CLR 12/M06 A3012 RMK AO2 SLP201
T01221056 56010


USA.gov is the U.S. government's official web portal to all federal, state and local government web resources and services.